createdAt,value
2023-02-11T00:00:02.091Z,46.7
2023-02-11T00:02:08.385Z,41.2
2023-02-11T00:06:20.730Z,42.6
2023-02-11T00:08:29.750Z,54.1
2023-02-11T00:10:35.977Z,37.3
2023-02-11T00:12:42.205Z,42
2023-02-11T00:19:00.873Z,27.7
2023-02-11T00:25:22.344Z,35.2
2023-02-11T00:29:34.793Z,35.2
2023-02-11T00:31:41.166Z,39.2
2023-02-11T00:38:02.492Z,34.8
2023-02-11T00:40:08.714Z,34.9
2023-02-11T00:42:14.957Z,37.3
2023-02-11T00:44:21.176Z,28.5
2023-02-11T00:46:27.494Z,32.3
2023-02-11T00:48:33.634Z,19.3
2023-02-11T00:50:39.840Z,43.5
2023-02-11T00:52:49.045Z,22.9
2023-02-11T00:54:55.123Z,20.3
2023-02-11T00:57:01.336Z,39.5
2023-02-11T01:01:33.386Z,42.4
2023-02-11T01:03:39.529Z,50.9
2023-02-11T01:05:59.495Z,41.5
2023-02-11T01:07:54.790Z,39.6
2023-02-11T01:10:00.999Z,49.7
2023-02-11T01:12:07.238Z,43.9
2023-02-11T01:14:13.462Z,23.9
2023-02-11T01:20:34.940Z,42.6
2023-02-11T01:22:41.167Z,40.9
2023-02-11T01:24:47.384Z,52.7
2023-02-11T01:33:12.303Z,31.6
2023-02-11T01:35:21.343Z,50.2
2023-02-11T01:37:27.565Z,23.5
2023-02-11T01:39:35.367Z,34.3
2023-02-11T01:41:41.543Z,44.1
2023-02-11T01:43:47.787Z,43.7
2023-02-11T01:45:54.023Z,47.9
2023-02-11T01:48:00.239Z,33.6
2023-02-11T01:50:09.262Z,43.3
2023-02-11T01:52:15.493Z,32.4
2023-02-11T01:54:21.893Z,33.8
2023-02-11T01:55:26.242Z,41.7
2023-02-11T01:57:32.497Z,44.5
2023-02-11T01:59:38.685Z,49.2
2023-02-11T02:01:45.018Z,44.3
2023-02-11T02:03:54.042Z,25.9
2023-02-11T02:06:00.159Z,33.9
2023-02-11T02:08:06.398Z,50.5
2023-02-11T02:10:12.624Z,52.5
2023-02-11T02:12:18.854Z,57.8
2023-02-11T02:16:31.399Z,37.4
2023-02-11T02:18:40.355Z,51
2023-02-11T02:24:59.050Z,29.2
2023-02-11T02:27:05.274Z,43.6
2023-02-11T02:29:11.503Z,38.5
2023-02-11T02:31:17.744Z,36.1
2023-02-11T02:37:39.186Z,33.9
2023-02-11T02:41:51.664Z,51.1
2023-02-11T02:43:57.888Z,20.7
2023-02-11T02:46:04.110Z,38.7
2023-02-11T02:48:13.134Z,34.5
2023-02-11T02:50:19.374Z,48.6
2023-02-11T02:52:29.996Z,44.1
2023-02-11T02:53:30.092Z,56.3
2023-02-11T02:55:36.386Z,30.2
2023-02-11T02:57:42.570Z,38.6
2023-02-11T02:59:48.796Z,30.6
2023-02-11T03:06:10.268Z,48.9
2023-02-11T03:08:16.506Z,40.7
2023-02-11T03:10:22.734Z,29.8
2023-02-11T03:12:28.961Z,25
2023-02-11T03:16:44.220Z,33.8
2023-02-11T03:18:50.435Z,30.8
2023-02-11T03:20:56.817Z,39.5
2023-02-11T03:23:02.885Z,22.5
2023-02-11T03:25:09.140Z,37.3
2023-02-11T03:31:30.726Z,40.1
2023-02-11T03:35:43.066Z,45.6
2023-02-11T03:37:49.299Z,51.8
2023-02-11T03:39:55.528Z,33.2
2023-02-11T03:42:01.769Z,38.9
2023-02-11T03:44:07.992Z,35.7
2023-02-11T03:46:17.289Z,44.4
2023-02-11T03:48:23.230Z,34
2023-02-11T03:50:29.469Z,36
2023-02-11T03:51:33.984Z,38.5
2023-02-11T03:53:40.188Z,40.7
2023-02-11T03:55:46.430Z,37.3
2023-02-11T03:57:52.640Z,39.1
2023-02-11T04:00:01.718Z,36.3
2023-02-11T04:06:20.370Z,40
2023-02-11T04:08:26.577Z,49.5
2023-02-11T04:10:32.813Z,26.6
2023-02-11T04:12:39.065Z,28.5
2023-02-11T04:14:48.109Z,34.5
2023-02-11T04:16:54.288Z,51.2
2023-02-11T04:19:00.520Z,66.7
2023-02-11T04:21:06.744Z,45.6
2023-02-11T04:23:12.970Z,44.4
2023-02-11T04:25:19.213Z,51.5
2023-02-11T04:27:25.428Z,33.1
2023-02-11T04:29:34.452Z,33.1
2023-02-11T04:31:40.699Z,55.5
2023-02-11T04:33:46.897Z,43.5
2023-02-11T04:37:59.339Z,42.7
2023-02-11T04:40:17.849Z,42.1
2023-02-11T04:42:11.792Z,52.4
2023-02-11T04:44:40.202Z,37.6
2023-02-11T04:46:27.169Z,48.7
2023-02-11T04:48:33.316Z,48.9
2023-02-11T04:53:05.546Z,46.9
2023-02-11T04:55:11.627Z,50.1
2023-02-11T04:57:20.669Z,31.2
2023-02-11T05:03:39.340Z,53.7
2023-02-11T05:05:45.555Z,55
2023-02-11T05:07:51.783Z,46.1
2023-02-11T05:09:58.022Z,56.2
2023-02-11T05:12:07.055Z,53.2
2023-02-11T05:14:13.280Z,57.8
2023-02-11T05:16:19.619Z,57.5
2023-02-11T05:18:25.730Z,52.1
2023-02-11T05:20:31.987Z,66.8
2023-02-11T05:22:38.192Z,41.7
2023-02-11T05:24:44.417Z,60.4
2023-02-11T05:26:53.439Z,44.2
2023-02-11T05:28:59.797Z,109.2
2023-02-11T05:31:05.949Z,58.2
2023-02-11T05:33:12.126Z,79.6
2023-02-11T05:39:30.809Z,63.8
2023-02-11T05:41:39.835Z,69.5
2023-02-11T05:43:46.056Z,57.4
2023-02-11T05:45:52.595Z,75.3
2023-02-11T05:51:09.514Z,61.4
2023-02-11T05:57:30.960Z,59.6
2023-02-11T05:59:37.359Z,79.7
2023-02-11T06:03:49.689Z,74.8
2023-02-11T06:08:02.092Z,69.9
2023-02-11T06:10:11.142Z,84.8
2023-02-11T06:12:17.338Z,82.6
2023-02-11T06:14:23.587Z,76.2
2023-02-11T06:16:29.817Z,61.8
2023-02-11T06:18:36.030Z,100.1
2023-02-11T06:20:42.234Z,62.7
2023-02-11T06:22:48.500Z,85
2023-02-11T06:25:01.749Z,79.7
2023-02-11T06:27:03.742Z,80.8
2023-02-11T06:29:09.990Z,96
2023-02-11T06:33:22.420Z,77
2023-02-11T06:35:28.653Z,75.9
2023-02-11T06:37:34.859Z,60.5
2023-02-11T06:41:50.118Z,87.4
2023-02-11T06:43:56.385Z,73.6
2023-02-11T06:45:00.894Z,88.1
2023-02-11T06:53:28.582Z,92.5
2023-02-11T06:55:34.816Z,84
2023-02-11T06:57:41.047Z,94.6
2023-02-11T06:59:47.299Z,78.6
2023-02-11T07:03:59.725Z,65.2
2023-02-11T07:06:06.028Z,75.7
2023-02-11T07:10:21.235Z,82.7
2023-02-11T07:16:40.006Z,95.5
2023-02-11T07:20:52.404Z,97.2
2023-02-11T07:23:01.445Z,79
2023-02-11T07:25:07.715Z,109.7
2023-02-11T07:27:13.884Z,53.7
2023-02-11T07:29:20.121Z,89.6
2023-02-11T07:31:26.508Z,77.5
2023-02-11T07:33:32.586Z,79.3
2023-02-11T07:35:41.010Z,75
2023-02-11T07:37:47.874Z,86.5
2023-02-11T07:39:54.095Z,89.4
2023-02-11T07:42:00.308Z,82
2023-02-11T07:47:18.875Z,93.7
2023-02-11T07:51:34.106Z,110.6
2023-02-11T07:53:40.359Z,95.8
2023-02-11T07:57:52.812Z,85.7
2023-02-11T07:59:59.072Z,78.6
2023-02-11T08:04:11.536Z,72
2023-02-11T08:06:20.559Z,87.2
2023-02-11T08:08:26.819Z,87.6
2023-02-11T08:12:39.277Z,103.2
2023-02-11T08:14:45.494Z,87.1
2023-02-11T08:16:51.859Z,89.4
2023-02-11T08:18:57.962Z,79.2
2023-02-11T08:21:07.017Z,91.7
2023-02-11T08:23:13.247Z,82.9
2023-02-11T08:25:19.477Z,70.3
2023-02-11T08:27:25.755Z,75.3
2023-02-11T08:29:31.968Z,86
2023-02-11T08:31:38.342Z,104.9
2023-02-11T08:33:44.466Z,75.1
2023-02-11T08:35:54.451Z,82.4
2023-02-11T08:38:00.818Z,64.9
2023-02-11T08:40:06.929Z,84
2023-02-11T08:42:32.785Z,80.4
2023-02-11T08:44:39.026Z,78.2
2023-02-11T08:48:54.293Z,82.9
2023-02-11T08:51:00.546Z,68.1
2023-02-11T08:53:06.771Z,73.8
2023-02-11T08:55:12.986Z,83.5
2023-02-11T08:57:19.234Z,87.7
2023-02-11T08:59:25.523Z,88.1
2023-02-11T09:01:31.800Z,95.9
2023-02-11T09:03:40.780Z,69.2
2023-02-11T09:05:46.995Z,68.6
2023-02-11T09:09:59.498Z,57.8
2023-02-11T09:12:05.739Z,85.6
2023-02-11T09:14:11.978Z,88.7
2023-02-11T09:20:33.523Z,85.6
2023-02-11T09:22:39.772Z,76.4
2023-02-11T09:24:46.054Z,79.9
2023-02-11T09:26:52.284Z,73.6
2023-02-11T09:28:58.555Z,59.4
2023-02-11T09:31:04.910Z,71.1
2023-02-11T09:33:13.875Z,65.7
2023-02-11T09:35:20.139Z,63.9
2023-02-11T09:38:30.861Z,69.3
2023-02-11T09:42:43.382Z,61.2
2023-02-11T09:44:49.635Z,53.2
2023-02-11T09:49:05.000Z,58.2
2023-02-11T09:53:17.480Z,54.3
2023-02-11T09:59:36.276Z,52.8
2023-02-11T10:03:51.709Z,58
2023-02-11T10:08:04.246Z,50.7
2023-02-11T10:10:11.184Z,61.2
2023-02-11T10:16:32.122Z,61.2
2023-02-11T10:18:38.459Z,54.1
2023-02-11T10:20:44.645Z,49.2
2023-02-11T10:22:50.939Z,51
2023-02-11T10:29:09.729Z,45
2023-02-11T10:31:18.923Z,46.7
2023-02-11T10:33:25.092Z,41.6
2023-02-11T10:35:31.410Z,47.2
2023-02-11T10:36:35.912Z,54.6
2023-02-11T10:38:42.210Z,40.7
2023-02-11T10:40:48.553Z,43.4
2023-02-11T10:42:55.794Z,50.8
2023-02-11T10:49:16.226Z,44.3
2023-02-11T10:53:28.742Z,44
2023-02-11T10:55:35.052Z,50.4
2023-02-11T10:57:41.318Z,35.9
2023-02-11T10:59:50.413Z,40.9
2023-02-11T11:01:56.768Z,37.5
2023-02-11T11:04:02.966Z,33.3
2023-02-11T11:06:09.249Z,33.2
2023-02-11T11:08:15.516Z,36.3
2023-02-11T11:10:21.813Z,32.8
2023-02-11T11:12:28.082Z,26.7
2023-02-11T11:14:37.154Z,33.9
2023-02-11T11:16:51.466Z,40.1
2023-02-11T11:18:49.714Z,30
2023-02-11T11:20:55.997Z,44.1
2023-02-11T11:23:02.278Z,42
2023-02-11T11:25:08.559Z,26.5
2023-02-11T11:31:30.341Z,33.8
2023-02-11T11:33:38.573Z,31.7
2023-02-11T11:34:40.999Z,34.6
2023-02-11T11:36:47.295Z,22.1
2023-02-11T11:38:53.564Z,32
2023-02-11T11:40:59.858Z,31.2
2023-02-11T11:43:08.954Z,31.3
2023-02-11T11:45:15.226Z,24.3
2023-02-11T11:55:46.619Z,30.8
2023-02-11T11:57:55.739Z,27.2
2023-02-11T12:00:02.027Z,25.9
2023-02-11T12:02:08.697Z,25.7
2023-02-11T12:04:14.553Z,27.2
2023-02-11T12:06:20.850Z,23.1
2023-02-11T12:08:27.130Z,22.2
2023-02-11T12:10:33.405Z,31.4
2023-02-11T12:12:44.221Z,21.5
2023-02-11T12:14:48.781Z,22.6
2023-02-11T12:16:55.089Z,23.3
2023-02-11T12:19:01.358Z,26.7
2023-02-11T12:21:07.642Z,24.8
2023-02-11T12:23:13.981Z,26.6
2023-02-11T12:25:20.194Z,19.1
2023-02-11T12:27:29.310Z,25.4
2023-02-11T12:29:35.601Z,17
2023-02-11T12:31:41.888Z,30.5
2023-02-11T12:34:01.654Z,22.2
2023-02-11T12:36:07.936Z,29
2023-02-11T12:40:23.395Z,25.3
2023-02-11T12:42:29.681Z,22.7
2023-02-11T12:44:35.960Z,18
2023-02-11T12:48:48.524Z,16.6
2023-02-11T12:53:01.122Z,18.1
2023-02-11T12:55:10.211Z,19.6
2023-02-11T12:57:16.515Z,22.6
2023-02-11T13:01:29.224Z,22.4
2023-02-11T13:03:35.367Z,25
2023-02-11T13:07:47.964Z,12.9
2023-02-11T13:09:57.066Z,16.8
2023-02-11T13:14:09.648Z,16.5
2023-02-11T13:16:15.962Z,17.6
2023-02-11T13:19:15.057Z,19.5
2023-02-11T13:20:28.522Z,28.4
2023-02-11T13:24:43.922Z,12.9
2023-02-11T13:28:56.517Z,19.4
2023-02-11T13:32:07.482Z,17.1
2023-02-11T13:34:13.673Z,21.2
2023-02-11T13:36:20.044Z,19.9
2023-02-11T13:38:29.086Z,23.9
2023-02-11T13:40:35.374Z,13.8
2023-02-11T13:44:47.968Z,12.1
2023-02-11T13:46:55.864Z,14
2023-02-11T13:53:17.509Z,15.3
2023-02-11T14:03:49.018Z,12.1
2023-02-11T14:05:55.378Z,20.5
2023-02-11T14:16:37.989Z,9
2023-02-11T14:18:35.915Z,14.4
2023-02-11T14:24:57.630Z,13
2023-02-11T14:28:08.547Z,15.6
2023-02-11T14:32:21.139Z,9.2
2023-02-11T14:36:36.504Z,16.3
2023-02-11T14:38:42.816Z,9.9
2023-02-11T14:40:49.344Z,14.6
2023-02-11T14:42:55.388Z,10.5
2023-02-11T14:45:01.673Z,8.4
2023-02-11T14:47:08.004Z,16.8
2023-02-11T14:49:14.309Z,16.8
2023-02-11T14:51:23.401Z,9.9
2023-02-11T14:53:29.668Z,13.4
2023-02-11T14:55:35.975Z,12.4
2023-02-11T14:59:48.612Z,8.8
2023-02-11T15:04:01.114Z,6.7
2023-02-11T15:06:10.262Z,9
2023-02-11T15:08:16.530Z,11.3
2023-02-11T15:10:22.828Z,7.4
2023-02-11T15:12:29.137Z,10.7
2023-02-11T15:14:35.411Z,7
2023-02-11T15:16:41.693Z,8.7
2023-02-11T15:18:47.998Z,10.1
2023-02-11T15:20:57.094Z,8.6
2023-02-11T15:23:03.382Z,13.5
2023-02-11T15:25:10.255Z,10.9
2023-02-11T15:26:14.811Z,9.8
2023-02-11T15:28:21.224Z,12.7
2023-02-11T15:30:27.389Z,12.8
2023-02-11T15:32:33.704Z,13
2023-02-11T15:34:42.780Z,16.3
2023-02-11T15:36:49.049Z,9.3
2023-02-11T15:38:55.341Z,11.1
2023-02-11T15:41:01.657Z,10.7
2023-02-11T15:43:07.933Z,8.1
2023-02-11T15:45:14.223Z,13.5
2023-02-11T15:47:20.527Z,15.8
2023-02-11T16:02:07.364Z,17.3
2023-02-11T16:04:16.464Z,15.2
2023-02-11T16:06:22.701Z,11.3
2023-02-11T16:08:29.046Z,8.5
2023-02-11T16:10:35.261Z,22.5
2023-02-11T16:12:41.532Z,21.4
2023-02-11T16:14:47.809Z,11.9
2023-02-11T16:16:54.126Z,10.8
2023-02-11T16:19:06.073Z,15.3
2023-02-11T16:21:09.505Z,11.5
2023-02-11T16:23:15.786Z,13.1
2023-02-11T16:25:35.949Z,28.3
2023-02-11T16:29:48.548Z,10.9
2023-02-11T16:31:57.688Z,8.8
2023-02-11T16:34:03.891Z,19.1
2023-02-11T16:36:10.174Z,15.2
2023-02-11T16:38:16.478Z,11
2023-02-11T16:42:29.035Z,19.2
2023-02-11T16:44:35.325Z,14.8
2023-02-11T16:46:44.464Z,17.3
2023-02-11T16:48:50.870Z,11.5
2023-02-11T16:50:57.381Z,14.7
2023-02-11T16:53:03.305Z,19.2
2023-02-11T16:55:09.557Z,21.1
2023-02-11T16:57:15.841Z,19.6
2023-02-11T16:59:22.129Z,22
2023-02-11T17:01:31.263Z,25.7
2023-02-11T17:03:37.514Z,20.4
2023-02-11T17:05:55.022Z,19.3
2023-02-11T17:07:50.080Z,21.6
2023-02-11T17:09:56.344Z,15.8
2023-02-11T17:14:09.495Z,20.9
2023-02-11T17:16:18.098Z,20.7
2023-02-11T17:18:24.389Z,19.9
2023-02-11T17:20:30.537Z,18.3
2023-02-11T17:21:35.100Z,26
2023-02-11T17:23:41.467Z,19.3
2023-02-11T17:30:03.049Z,20.7
2023-02-11T17:32:09.357Z,19.3
2023-02-11T17:36:21.884Z,32.4
2023-02-11T17:38:28.136Z,18.6
2023-02-11T17:40:34.423Z,25.1
2023-02-11T17:42:40.720Z,19.9
2023-02-11T17:44:49.989Z,21.3
2023-02-11T17:46:56.080Z,18.3
2023-02-11T17:49:02.398Z,18.7
2023-02-11T17:51:08.614Z,16
2023-02-11T17:53:14.926Z,19.6
2023-02-11T17:55:21.188Z,37
2023-02-11T17:57:27.465Z,25.3
2023-02-11T17:59:36.537Z,23.1
2023-02-11T18:03:49.128Z,24.1
2023-02-11T18:05:55.352Z,21.9
2023-02-11T18:10:07.924Z,22
2023-02-11T18:12:14.188Z,23.9
2023-02-11T18:16:29.607Z,21.5
2023-02-11T18:18:35.838Z,23.1
2023-02-11T18:19:40.410Z,23.4
2023-02-11T18:21:46.640Z,25.9
2023-02-11T18:23:52.906Z,24.1
2023-02-11T18:25:59.201Z,23.9
2023-02-11T18:28:08.363Z,27.2
2023-02-11T18:32:20.826Z,22.6
2023-02-11T18:34:27.169Z,24.7
2023-02-11T18:38:39.674Z,23.1
2023-02-11T18:40:45.909Z,22.2
2023-02-11T18:47:07.542Z,34.7
2023-02-11T18:51:20.086Z,26.9
2023-02-11T18:53:26.351Z,25.2
2023-02-11T18:55:32.632Z,27
2023-02-11T18:57:41.684Z,48.1
2023-02-11T19:04:00.993Z,20.5
2023-02-11T19:06:07.197Z,25.3
2023-02-11T19:08:13.455Z,23.3
2023-02-11T19:10:19.693Z,22.9
2023-02-11T19:14:35.048Z,20.9
2023-02-11T19:16:41.387Z,37.3
2023-02-11T19:17:45.825Z,35.3
2023-02-11T19:19:52.115Z,24.1
2023-02-11T19:21:58.370Z,23.7
2023-02-11T19:24:04.655Z,22.7
2023-02-11T19:26:13.698Z,32.6
2023-02-11T19:28:20.029Z,26.7
2023-02-11T19:30:26.228Z,21.4
2023-02-11T19:32:32.483Z,27.5
2023-02-11T19:34:38.747Z,26
2023-02-11T19:36:45.023Z,33
2023-02-11T19:38:51.292Z,25.2
2023-02-11T19:43:06.599Z,36.3
2023-02-11T19:45:56.331Z,34.6
2023-02-11T19:49:25.372Z,42.6
2023-02-11T19:51:33.236Z,33.7
2023-02-11T19:53:39.434Z,29.4
2023-02-11T19:55:48.497Z,40.4
2023-02-11T20:00:01.029Z,30.5
2023-02-11T20:02:07.289Z,33.1
2023-02-11T20:04:13.553Z,26.3
2023-02-11T20:08:26.051Z,21.4
2023-02-11T20:10:35.129Z,34.3
2023-02-11T20:12:41.374Z,27
2023-02-11T20:14:47.651Z,30.4
2023-02-11T20:17:13.178Z,34.4
2023-02-11T20:19:19.433Z,24.7
2023-02-11T20:21:25.682Z,36.7
2023-02-11T20:25:40.985Z,36.5
2023-02-11T20:27:47.261Z,31.1
2023-02-11T20:29:53.530Z,37.2
2023-02-11T20:31:59.886Z,28.7
2023-02-11T20:34:06.035Z,37.7
2023-02-11T20:36:12.270Z,29.8
2023-02-11T20:38:21.348Z,31
2023-02-11T20:40:27.643Z,32.6
2023-02-11T20:42:33.900Z,47
2023-02-11T20:44:40.155Z,43.8
2023-02-11T20:46:46.567Z,41.5
2023-02-11T20:48:52.628Z,30.7
2023-02-11T20:50:58.883Z,36.3
2023-02-11T20:53:07.956Z,33.3
2023-02-11T21:03:39.294Z,33
2023-02-11T21:05:49.269Z,46.5
2023-02-11T21:08:05.287Z,35.6
2023-02-11T21:10:00.778Z,44.2
2023-02-11T21:12:07.012Z,37.3
2023-02-11T21:15:17.808Z,42.4
2023-02-11T21:17:24.040Z,37.3
2023-02-11T21:19:30.297Z,43.8
2023-02-11T21:21:39.401Z,43.1
2023-02-11T21:23:45.606Z,35.9
2023-02-11T21:25:51.864Z,36.2
2023-02-11T21:27:58.159Z,36
2023-02-11T21:32:11.411Z,33.4
2023-02-11T21:34:17.604Z,45
2023-02-11T21:36:26.649Z,40.2
2023-02-11T21:38:32.898Z,44.8
2023-02-11T21:40:39.152Z,37.1
2023-02-11T21:42:45.413Z,44.4
2023-02-11T21:44:51.647Z,33.6
2023-02-11T21:46:58.085Z,33.2
2023-02-11T21:49:04.171Z,35.4
2023-02-11T21:53:19.471Z,32.4
2023-02-11T21:55:25.705Z,34.5
2023-02-11T22:06:13.542Z,39.6
2023-02-11T22:08:06.028Z,43
2023-02-11T22:10:12.285Z,36.4
2023-02-11T22:11:16.814Z,45
2023-02-11T22:13:23.058Z,41.9
2023-02-11T22:15:29.294Z,30.7
2023-02-11T22:17:35.598Z,38.9
2023-02-11T22:23:57.156Z,34.9
2023-02-11T22:26:16.695Z,34.3
2023-02-11T22:28:09.667Z,35.4
2023-02-11T22:30:15.874Z,29.4
2023-02-11T22:32:22.152Z,44.6
2023-02-11T22:34:31.210Z,33.8
2023-02-11T22:36:37.437Z,30.1
2023-02-11T22:38:56.396Z,29.1
2023-02-11T22:40:49.926Z,30.4
2023-02-11T22:42:56.171Z,30.6
2023-02-11T22:49:17.788Z,29.8
2023-02-11T22:53:30.248Z,29.6
2023-02-11T22:55:36.543Z,27
2023-02-11T22:57:42.739Z,28.3
2023-02-11T22:59:48.994Z,25.6
2023-02-11T23:01:55.432Z,28.8
2023-02-11T23:04:04.307Z,35.7
2023-02-11T23:06:10.579Z,35.1
2023-02-11T23:08:16.843Z,33
2023-02-11T23:09:21.341Z,33.7
2023-02-11T23:11:29.745Z,33.4
2023-02-11T23:19:55.398Z,33.4
2023-02-11T23:24:07.890Z,38.8
2023-02-11T23:30:26.606Z,34.9
2023-02-11T23:32:35.743Z,29.7
2023-02-11T23:34:41.897Z,34.4
2023-02-11T23:36:48.157Z,43
2023-02-11T23:38:54.407Z,39.1
2023-02-11T23:47:22.166Z,35.3
2023-02-11T23:51:34.636Z,45.9
2023-02-11T23:53:40.883Z,43.9
2023-02-11T23:55:47.121Z,45.1
2023-02-11T23:57:53.349Z,31.1
2023-02-11T23:59:59.587Z,37.3
